Time;durP1;ratioP1;P1;durP2;ratioP2;P2;SDS_P1;SDS_P2;PMS_P1;PMS_P2;Temp;Humidity;BMP_temperature;BMP_pressure;BME280_temperature;BME280_humidity;BME280_pressure;Samples;Min_cycle;Max_cycle;Signal;HPM_P1;HPM_P2
2022/01/28 00:00:49;;;;;;;10.02;5.22;;;;;;;;;;20743004;28;20054;-62
2022/01/28 00:10:52;;;;;;;11.90;4.47;;;;;;;;;;20742435;28;20046;-64
2022/01/28 00:41:17;;;;;;;15.52;5.07;;;;;;;;;;20750390;28;20093;-57
2022/01/28 00:51:19;;;;;;;32.60;5.05;;;;;;;;;;20748136;28;20053;-63
2022/01/28 01:01:21;;;;;;;10.38;4.97;;;;;;;;;;20749560;28;20054;-60
2022/01/28 01:11:24;;;;;;;8.13;4.20;;;;;;;;;;20753893;28;20042;-63
2022/01/28 01:21:28;;;;;;;12.27;4.78;;;;;;;;;;20774192;28;20064;-58
2022/01/28 01:31:35;;;;;;;8.02;3.63;;;;;;;;;;20795007;28;20056;-66
2022/01/28 01:41:50;;;;;;;8.40;3.83;;;;;;;;;;20774420;28;20049;-61
2022/01/28 01:52:04;;;;;;;6.82;3.15;;;;;;;;;;20778357;28;20414;-61
2022/01/28 02:02:09;;;;;;;4.60;2.58;;;;;;;;;;20768128;28;20133;-62
2022/01/28 02:12:17;;;;;;;7.97;3.38;;;;;;;;;;20766987;28;20065;-61
2022/01/28 02:22:20;;;;;;;8.18;2.70;;;;;;;;;;20764307;28;20057;-62
2022/01/28 02:32:23;;;;;;;6.43;3.03;;;;;;;;;;20763550;28;20053;-60
2022/01/28 02:42:48;;;;;;;6.32;3.10;;;;;;;;;;20763258;28;20050;-61
2022/01/28 02:53:01;;;;;;;7.45;2.83;;;;;;;;;;20762732;28;20054;-64
2022/01/28 03:03:03;;;;;;;8.63;3.10;;;;;;;;;;20772366;28;20058;-64
2022/01/28 03:23:11;;;;;;;10.83;2.00;;;;;;;;;;20769039;28;20093;-58
2022/01/28 03:33:17;;;;;;;4.88;2.00;;;;;;;;;;20770345;28;20046;-80
2022/01/28 03:43:20;;;;;;;3.85;2.10;;;;;;;;;;20772097;28;20045;-63
2022/01/28 03:53:24;;;;;;;4.30;1.80;;;;;;;;;;20757902;28;20081;-60
2022/01/28 04:13:32;;;;;;;11.13;2.30;;;;;;;;;;20793965;28;20057;-68
2022/01/28 04:23:44;;;;;;;3.90;1.90;;;;;;;;;;20784350;28;20112;-61
2022/01/28 04:33:46;;;;;;;4.75;1.95;;;;;;;;;;20761788;28;20050;-64
2022/01/28 04:43:56;;;;;;;5.55;2.08;;;;;;;;;;20761476;28;20054;-71
2022/01/28 04:54:12;;;;;;;3.42;1.80;;;;;;;;;;20754506;28;20132;-63
2022/01/28 05:35:08;;;;;;;3.67;1.85;;;;;;;;;;20753088;28;20550;-62
2022/01/28 05:45:12;;;;;;;3.40;1.75;;;;;;;;;;20760059;28;20078;-59
2022/01/28 05:55:16;;;;;;;3.72;1.98;;;;;;;;;;20769488;28;20112;-63
2022/01/28 06:05:20;;;;;;;3.45;1.83;;;;;;;;;;20767133;28;20133;-62
2022/01/28 06:15:22;;;;;;;3.42;2.25;;;;;;;;;;20763422;28;20380;-68
2022/01/28 06:25:23;;;;;;;7.15;2.55;;;;;;;;;;20774305;28;20060;-63
2022/01/28 06:35:25;;;;;;;3.03;1.77;;;;;;;;;;20765436;28;20050;-65
2022/01/28 06:45:28;;;;;;;4.80;1.88;;;;;;;;;;20762419;28;20486;-63
2022/01/28 06:55:29;;;;;;;4.75;2.42;;;;;;;;;;20761328;28;20046;-60
2022/01/28 07:05:34;;;;;;;5.20;2.22;;;;;;;;;;20764474;28;20057;-64
2022/01/28 07:15:36;;;;;;;4.70;2.20;;;;;;;;;;20771434;28;20416;-70
2022/01/28 07:25:38;;;;;;;6.72;2.67;;;;;;;;;;20786544;28;20050;-66
2022/01/28 07:35:41;;;;;;;9.30;3.80;;;;;;;;;;20772624;28;20461;-66
2022/01/28 07:45:44;;;;;;;12.10;4.25;;;;;;;;;;20770575;28;20054;-66
2022/01/28 07:55:46;;;;;;;9.20;4.55;;;;;;;;;;20772475;28;20409;-63
2022/01/28 08:05:50;;;;;;;8.95;4.43;;;;;;;;;;20779491;28;20137;-62
2022/01/28 08:15:52;;;;;;;11.50;5.80;;;;;;;;;;20762680;28;20513;-64
2022/01/28 08:25:55;;;;;;;12.25;5.75;;;;;;;;;;20758924;28;20057;-64
2022/01/28 08:35:59;;;;;;;13.07;4.70;;;;;;;;;;20763822;28;20050;-61
2022/01/28 08:46:00;;;;;;;15.15;6.05;;;;;;;;;;20763526;28;20430;-65
2022/01/28 08:56:03;;;;;;;16.70;6.32;;;;;;;;;;20761421;28;20049;-58
2022/01/28 09:06:05;;;;;;;13.48;6.53;;;;;;;;;;20756904;28;20046;-62
2022/01/28 09:16:07;;;;;;;9.18;4.43;;;;;;;;;;20767738;28;20061;-64
2022/01/28 09:26:09;;;;;;;14.95;5.38;;;;;;;;;;20764043;28;20058;-59
2022/01/28 09:36:11;;;;;;;12.02;3.65;;;;;;;;;;20763039;28;20434;-63
2022/01/28 09:46:14;;;;;;;8.20;4.60;;;;;;;;;;20762647;28;20597;-63
2022/01/28 09:56:15;;;;;;;9.43;3.58;;;;;;;;;;20761211;28;20471;-64
2022/01/28 10:06:35;;;;;;;8.50;3.15;;;;;;;;;;20759455;28;20141;-60
2022/01/28 10:16:36;;;;;;;5.07;2.83;;;;;;;;;;20758678;28;20574;-65
2022/01/28 10:26:50;;;;;;;8.85;3.22;;;;;;;;;;20757666;28;20471;-58
2022/01/28 10:37:06;;;;;;;5.93;2.90;;;;;;;;;;20756877;28;20050;-63
2022/01/28 10:47:09;;;;;;;3.35;2.15;;;;;;;;;;20756846;28;20487;-58
2022/01/28 10:57:11;;;;;;;4.55;2.67;;;;;;;;;;20761811;28;20061;-65
2022/01/28 11:07:13;;;;;;;7.57;3.92;;;;;;;;;;20823680;28;20064;-58
2022/01/28 11:17:16;;;;;;;11.65;5.28;;;;;;;;;;20804431;28;20521;-58
2022/01/28 11:27:19;;;;;;;16.45;6.80;;;;;;;;;;20802284;28;20052;-63
2022/01/28 11:37:27;;;;;;;11.05;4.75;;;;;;;;;;20817743;28;20144;-62
2022/01/28 11:47:52;;;;;;;9.50;4.35;;;;;;;;;;20813704;28;20099;-58
2022/01/28 11:57:55;;;;;;;11.00;4.23;;;;;;;;;;20823923;28;20052;-60
2022/01/28 12:08:07;;;;;;;8.52;3.55;;;;;;;;;;21236794;27;20116;-55
2022/01/28 12:18:10;;;;;;;13.60;6.28;;;;;;;;;;21213673;27;20138;-55
2022/01/28 12:28:20;;;;;;;8.75;4.10;;;;;;;;;;21215907;27;20046;-57
2022/01/28 12:38:24;;;;;;;5.70;2.58;;;;;;;;;;21227513;27;20043;-62
2022/01/28 12:48:27;;;;;;;4.57;3.20;;;;;;;;;;21208936;27;20166;-57
2022/01/28 12:58:36;;;;;;;8.98;8.15;;;;;;;;;;21209347;27;20324;-57
2022/01/28 13:08:41;;;;;;;3.55;1.30;;;;;;;;;;21229010;27;20475;-55
2022/01/28 13:18:59;;;;;;;9.85;2.08;;;;;;;;;;21182464;27;20089;-53
2022/01/28 13:29:05;;;;;;;2.90;1.98;;;;;;;;;;21172843;27;20047;-67
2022/01/28 13:39:14;;;;;;;4.72;1.55;;;;;;;;;;21172174;28;20074;-59
2022/01/28 13:49:17;;;;;;;3.60;1.58;;;;;;;;;;21171951;28;20100;-58
2022/01/28 13:59:24;;;;;;;5.20;1.45;;;;;;;;;;21171193;27;20052;-57
2022/01/28 14:09:26;;;;;;;1.95;1.27;;;;;;;;;;21169256;28;20097;-57
2022/01/28 14:19:30;;;;;;;4.28;1.65;;;;;;;;;;21169672;27;20408;-56
2022/01/28 14:39:40;;;;;;;2.05;1.13;;;;;;;;;;21168298;28;20113;-56
2022/01/28 14:49:42;;;;;;;2.35;1.10;;;;;;;;;;21166721;28;20040;-59
2022/01/28 14:59:44;;;;;;;4.93;1.30;;;;;;;;;;21165769;28;20055;-59
2022/01/28 15:09:51;;;;;;;2.70;1.10;;;;;;;;;;21164685;27;20058;-58
2022/01/28 15:19:53;;;;;;;2.65;1.13;;;;;;;;;;21164012;28;20083;-58
2022/01/28 15:30:05;;;;;;;3.50;1.80;;;;;;;;;;21163942;28;20079;-60
2022/01/28 15:40:07;;;;;;;4.40;1.60;;;;;;;;;;21162771;28;20415;-58
2022/01/28 15:50:12;;;;;;;3.05;1.55;;;;;;;;;;21162984;28;20124;-58
2022/01/28 16:00:14;;;;;;;2.72;1.05;;;;;;;;;;21162826;28;20063;-59
2022/01/28 16:10:20;;;;;;;4.72;1.50;;;;;;;;;;21163335;28;20059;-57
2022/01/28 16:20:22;;;;;;;5.82;1.92;;;;;;;;;;21161956;28;20355;-61
2022/01/28 16:30:24;;;;;;;5.78;1.85;;;;;;;;;;21163319;28;20043;-59
2022/01/28 16:40:27;;;;;;;3.65;1.65;;;;;;;;;;21160810;28;20048;-56
2022/01/28 16:50:29;;;;;;;8.27;2.40;;;;;;;;;;21171289;28;20130;-62
2022/01/28 17:00:30;;;;;;;3.80;1.77;;;;;;;;;;21177628;28;20060;-68
2022/01/28 17:20:38;;;;;;;8.27;2.90;;;;;;;;;;21173980;28;20506;-57
2022/01/28 17:30:40;;;;;;;4.82;2.95;;;;;;;;;;21173144;28;20296;-54
2022/01/28 17:40:42;;;;;;;8.75;4.10;;;;;;;;;;21173787;28;20121;-69
2022/01/28 17:50:43;;;;;;;8.10;3.28;;;;;;;;;;21173260;28;20048;-53
2022/01/28 18:00:47;;;;;;;15.15;4.57;;;;;;;;;;21170930;28;20509;-54
2022/01/28 18:10:49;;;;;;;13.57;5.30;;;;;;;;;;21175589;28;20043;-65
2022/01/28 18:20:51;;;;;;;22.20;7.28;;;;;;;;;;21171226;28;20048;-53
2022/01/28 18:30:53;;;;;;;13.35;6.13;;;;;;;;;;21192868;28;20498;-55
2022/01/28 18:40:55;;;;;;;18.20;6.32;;;;;;;;;;21174793;28;20044;-60
2022/01/28 18:50:57;;;;;;;16.42;6.30;;;;;;;;;;21168010;28;20385;-57
2022/01/28 19:01:03;;;;;;;13.13;5.53;;;;;;;;;;21167814;28;20043;-54
2022/01/28 19:11:05;;;;;;;14.27;5.28;;;;;;;;;;21165873;28;20079;-54
2022/01/28 19:21:06;;;;;;;10.57;4.85;;;;;;;;;;21164909;28;20059;-56
2022/01/28 19:31:10;;;;;;;10.23;3.70;;;;;;;;;;21163560;28;20047;-62
2022/01/28 19:41:12;;;;;;;9.15;2.97;;;;;;;;;;21165165;28;20043;-64
2022/01/28 19:51:17;;;;;;;8.63;4.13;;;;;;;;;;21163739;28;20415;-58
2022/01/28 20:01:19;;;;;;;12.60;4.00;;;;;;;;;;21162694;28;20130;-56
2022/01/28 20:11:21;;;;;;;9.50;3.72;;;;;;;;;;21163024;28;20127;-56
2022/01/28 20:21:23;;;;;;;4.43;2.42;;;;;;;;;;21163733;28;20051;-57
2022/01/28 20:31:25;;;;;;;5.85;2.78;;;;;;;;;;21178662;28;20047;-57
2022/01/28 20:41:28;;;;;;;5.38;2.63;;;;;;;;;;21178153;28;20054;-56
2022/01/28 20:51:30;;;;;;;6.22;3.47;;;;;;;;;;21177001;28;20044;-58
2022/01/28 21:01:32;;;;;;;10.52;4.20;;;;;;;;;;21175688;28;20450;-57
2022/01/28 21:11:34;;;;;;;8.63;3.88;;;;;;;;;;21175010;28;20509;-57
2022/01/28 21:21:36;;;;;;;9.52;4.25;;;;;;;;;;21173939;28;20079;-58
2022/01/28 21:31:38;;;;;;;10.40;4.88;;;;;;;;;;21173810;28;20047;-58
2022/01/28 21:41:40;;;;;;;8.93;4.75;;;;;;;;;;21173449;28;20058;-57
2022/01/28 21:51:43;;;;;;;9.32;5.30;;;;;;;;;;21172103;28;20058;-56
2022/01/28 22:01:48;;;;;;;5.90;3.38;;;;;;;;;;21171538;27;20051;-59
2022/01/28 22:11:49;;;;;;;4.70;2.65;;;;;;;;;;21170832;28;20121;-58
2022/01/28 22:21:51;;;;;;;7.18;3.45;;;;;;;;;;21170061;28;20048;-56
2022/01/28 22:31:54;;;;;;;7.05;3.80;;;;;;;;;;21169302;27;20101;-56
2022/01/28 22:41:58;;;;;;;10.45;4.93;;;;;;;;;;21168477;28;20468;-57
2022/01/28 22:51:59;;;;;;;7.40;5.00;;;;;;;;;;21167601;28;20063;-57
2022/01/28 23:02:01;;;;;;;7.50;4.25;;;;;;;;;;21166778;28;20499;-57
2022/01/28 23:12:04;;;;;;;8.52;4.82;;;;;;;;;;21166738;28;20049;-56
2022/01/28 23:22:05;;;;;;;9.40;4.88;;;;;;;;;;21165325;28;20048;-54
2022/01/28 23:32:09;;;;;;;6.10;4.10;;;;;;;;;;21166500;28;20377;-56
2022/01/28 23:42:11;;;;;;;8.02;4.00;;;;;;;;;;21170559;28;20172;-57
2022/01/28 23:52:13;;;;;;;7.47;4.78;;;;;;;;;;21163867;27;20080;-54
